PWSweather.com
Personal Weather Stations
Station Observations
KOHAVON11
Long Road Station, Avon, OH 44011

Long Road StationAvon, OH 44011

Lat: 41.437, Lon: -82.0477

Elevation: 686

Station Type: Davis Vantage Pro2

http://www.avon-weather.com

High Low Average
Temperature 46.3°F7.9°C 36.2°F2.3°C 39.5°F4.2°C
Dew Point 36.6°F2.6°C 32.5°F0.3°C 34.2°F1.2°C
Winds 14.0 mph 22.5 kmh Calm Calm 3.0 mph SW4.8 kmh SW
Wind Gusts 16.0 mph25.7 kmh -- 8.0 mph12.9 kmh
Humidity 90% 63% 82%
Pressure 30.23 in1023.7 mb 29.89 in1012.2 mb -
Precipitation 0.00 in0.0 mm - -
Hour Temp Dew Point Humidity Winds Wind Gusts Pressure Precip Precip Rate Daily Precip Total
12:01 AM 37.7°F3.2°C 35.1°F1.7°C 90% 7.0 mph NW11.3 kmh NW 15.0 mph24.1 kmh 29.87 in1011.5 mb 0.00 in0.0 mm 0.00 in0.0 mm 0.00 in0.0 mm
12:06 AM 37.6°F3.1°C 35.0°F1.7°C 90% 8.0 mph NNW12.9 kmh NNW 16.0 mph25.7 kmh 29.87 in1011.5 mb 0.00 in0.0 mm 0.00 in0.0 mm 0.00 in0.0 mm
12:11 AM 37.5°F3.1°C 34.9°F1.6°C 90% 8.0 mph NNW12.9 kmh NNW 16.0 mph25.7 kmh 29.88 in1011.9 mb 0.00 in0.0 mm 0.00 in0.0 mm 0.00 in0.0 mm
12:16 AM 37.4°F3.0°C 34.8°F1.6°C 90% 9.0 mph NW14.5 kmh NW 16.0 mph25.7 kmh 29.88 in1011.9 mb 0.00 in0.0 mm 0.00 in0.0 mm 0.00 in0.0 mm
12:21 AM 37.4°F3.0°C 34.8°F1.6°C 90% 10.0 mph NW16.1 kmh NW 16.0 mph25.7 kmh 29.88 in1011.9 mb 0.00 in0.0 mm 0.00 in0.0 mm 0.00 in0.0 mm
12:26 AM 37.3°F2.9°C 34.7°F1.5°C 90% 6.0 mph NW9.7 kmh NW 15.0 mph24.1 kmh 29.88 in1011.9 mb 0.00 in0.0 mm 0.00 in0.0 mm 0.00 in0.0 mm
12:31 AM 37.3°F2.9°C 34.7°F1.5°C 90% 6.0 mph WNW9.7 kmh WNW 15.0 mph24.1 kmh 29.88 in1011.9 mb 0.00 in0.0 mm 0.00 in0.0 mm 0.00 in0.0 mm
12:36 AM 37.3°F2.9°C 34.7°F1.5°C 90% 4.0 mph NNW6.4 kmh NNW 15.0 mph24.1 kmh 29.88 in1011.9 mb 0.00 in0.0 mm 0.00 in0.0 mm 0.00 in0.0 mm
12:41 AM 37.3°F2.9°C 34.7°F1.5°C 90% 11.0 mph WNW17.7 kmh WNW 15.0 mph24.1 kmh 29.88 in1011.9 mb 0.00 in0.0 mm 0.00 in0.0 mm 0.00 in0.0 mm
12:46 AM 37.2°F2.9°C 34.6°F1.4°C 90% 5.0 mph NW8.0 kmh NW 15.0 mph24.1 kmh 29.89 in1012.2 mb 0.00 in0.0 mm 0.00 in0.0 mm 0.00 in0.0 mm
12:51 AM 37.2°F2.9°C 34.6°F1.4°C 90% 6.0 mph N9.7 kmh N 15.0 mph24.1 kmh 29.89 in1012.2 mb 0.00 in0.0 mm 0.00 in0.0 mm 0.00 in0.0 mm
12:56 AM 37.2°F2.9°C 34.6°F1.4°C 90% 5.0 mph NNW8.0 kmh NNW 13.0 mph20.9 kmh 29.89 in1012.2 mb 0.00 in0.0 mm 0.00 in0.0 mm 0.00 in0.0 mm
01:01 AM 37.2°F2.9°C 34.6°F1.4°C 90% 7.0 mph NW11.3 kmh NW 13.0 mph20.9 kmh 29.89 in1012.2 mb 0.00 in0.0 mm 0.00 in0.0 mm 0.00 in0.0 mm
01:06 AM 37.1°F2.8°C 34.5°F1.4°C 90% 4.0 mph NW6.4 kmh NW 13.0 mph20.9 kmh 29.89 in1012.2 mb 0.00 in0.0 mm 0.00 in0.0 mm 0.00 in0.0 mm
01:11 AM 37.1°F2.8°C 34.5°F1.4°C 90% 5.0 mph NW8.0 kmh NW 13.0 mph20.9 kmh 29.89 in1012.2 mb 0.00 in0.0 mm 0.00 in0.0 mm 0.00 in0.0 mm
01:16 AM 37.1°F2.8°C 34.5°F1.4°C 90% 2.0 mph NNW3.2 kmh NNW 12.0 mph19.3 kmh 29.90 in1012.5 mb 0.00 in0.0 mm 0.00 in0.0 mm 0.00 in0.0 mm
01:21 AM 37.0°F2.8°C 34.4°F1.3°C 90% 1.0 mph NW1.6 kmh NW 12.0 mph19.3 kmh 29.90 in1012.5 mb 0.00 in0.0 mm 0.00 in0.0 mm 0.00 in0.0 mm
01:26 AM 37.0°F2.8°C 34.4°F1.3°C 90% 5.0 mph W8.0 kmh W 13.0 mph20.9 kmh 29.90 in1012.5 mb 0.00 in0.0 mm 0.00 in0.0 mm 0.00 in0.0 mm
01:31 AM 37.0°F2.8°C 34.4°F1.3°C 90% 6.0 mph NW9.7 kmh NW 13.0 mph20.9 kmh 29.91 in1012.9 mb 0.00 in0.0 mm 0.00 in0.0 mm 0.00 in0.0 mm
01:36 AM 37.0°F2.8°C 34.4°F1.3°C 90% 5.0 mph NW8.0 kmh NW 13.0 mph20.9 kmh 29.90 in1012.5 mb 0.00 in0.0 mm 0.00 in0.0 mm 0.00 in0.0 mm
01:41 AM 36.9°F2.7°C 34.3°F1.3°C 90% 9.0 mph WNW14.5 kmh WNW 14.0 mph22.5 kmh 29.91 in1012.9 mb 0.00 in0.0 mm 0.00 in0.0 mm 0.00 in0.0 mm
01:46 AM 36.9°F2.7°C 34.3°F1.3°C 90% 6.0 mph NW9.7 kmh NW 14.0 mph22.5 kmh 29.91 in1012.9 mb 0.00 in0.0 mm 0.00 in0.0 mm 0.00 in0.0 mm
01:51 AM 36.9°F2.7°C 34.3°F1.3°C 90% 7.0 mph NW11.3 kmh NW 14.0 mph22.5 kmh 29.91 in1012.9 mb 0.00 in0.0 mm 0.00 in0.0 mm 0.00 in0.0 mm
01:56 AM 36.9°F2.7°C 34.3°F1.3°C 90% 3.0 mph N4.8 kmh N 14.0 mph22.5 kmh 29.91 in1012.9 mb 0.00 in0.0 mm 0.00 in0.0 mm 0.00 in0.0 mm
02:01 AM 36.9°F2.7°C 34.3°F1.3°C 90% 1.0 mph NW1.6 kmh NW 12.0 mph19.3 kmh 29.91 in1012.9 mb 0.00 in0.0 mm 0.00 in0.0 mm 0.00 in0.0 mm
02:06 AM 36.9°F2.7°C 34.3°F1.3°C 90% 7.0 mph NW11.3 kmh NW 12.0 mph19.3 kmh 29.91 in1012.9 mb 0.00 in0.0 mm 0.00 in0.0 mm 0.00 in0.0 mm
02:11 AM 36.9°F2.7°C 34.3°F1.3°C 90% 5.0 mph NW8.0 kmh NW 10.0 mph16.1 kmh 29.91 in1012.9 mb 0.00 in0.0 mm 0.00 in0.0 mm 0.00 in0.0 mm
02:16 AM 36.9°F2.7°C 34.3°F1.3°C 90% 3.0 mph WNW4.8 kmh WNW 10.0 mph16.1 kmh 29.91 in1012.9 mb 0.00 in0.0 mm 0.00 in0.0 mm 0.00 in0.0 mm
02:21 AM 36.9°F2.7°C 34.3°F1.3°C 90% 9.0 mph WNW14.5 kmh WNW 9.0 mph14.5 kmh 29.91 in1012.9 mb 0.00 in0.0 mm 0.00 in0.0 mm 0.00 in0.0 mm
02:26 AM 36.9°F2.7°C 34.3°F1.3°C 90% 6.0 mph NW9.7 kmh NW 9.0 mph14.5 kmh 29.91 in1012.9 mb 0.00 in0.0 mm 0.00 in0.0 mm 0.00 in0.0 mm
02:31 AM 36.9°F2.7°C 34.3°F1.3°C 90% 6.0 mph NW9.7 kmh NW 9.0 mph14.5 kmh 29.92 in1013.2 mb 0.00 in0.0 mm 0.00 in0.0 mm 0.00 in0.0 mm
02:36 AM 36.9°F2.7°C 34.3°F1.3°C 90% 4.0 mph NW6.4 kmh NW 10.0 mph16.1 kmh 29.92 in1013.2 mb 0.00 in0.0 mm 0.00 in0.0 mm 0.00 in0.0 mm
02:41 AM 36.9°F2.7°C 34.3°F1.3°C 90% 11.0 mph NW17.7 kmh NW 13.0 mph20.9 kmh 29.92 in1013.2 mb 0.00 in0.0 mm 0.00 in0.0 mm 0.00 in0.0 mm
02:46 AM 36.9°F2.7°C 34.3°F1.3°C 90% 2.0 mph NW3.2 kmh NW 13.0 mph20.9 kmh 29.92 in1013.2 mb 0.00 in0.0 mm 0.00 in0.0 mm 0.00 in0.0 mm
02:51 AM 36.9°F2.7°C 34.3°F1.3°C 90% 6.0 mph NW9.7 kmh NW 13.0 mph20.9 kmh 29.92 in1013.2 mb 0.00 in0.0 mm 0.00 in0.0 mm 0.00 in0.0 mm
02:56 AM 36.9°F2.7°C 34.3°F1.3°C 90% 5.0 mph WNW8.0 kmh WNW 13.0 mph20.9 kmh 29.93 in1013.5 mb 0.00 in0.0 mm 0.00 in0.0 mm 0.00 in0.0 mm
03:01 AM 36.9°F2.7°C 34.3°F1.3°C 90% 7.0 mph WNW11.3 kmh WNW 13.0 mph20.9 kmh 29.93 in1013.5 mb 0.00 in0.0 mm 0.00 in0.0 mm 0.00 in0.0 mm
03:06 AM 36.9°F2.7°C 34.3°F1.3°C 90% 5.0 mph NW8.0 kmh NW 13.0 mph20.9 kmh 29.93 in1013.5 mb 0.00 in0.0 mm 0.00 in0.0 mm 0.00 in0.0 mm
03:11 AM 36.9°F2.7°C 34.3°F1.3°C 90% 4.0 mph NW6.4 kmh NW 10.0 mph16.1 kmh 29.94 in1013.9 mb 0.00 in0.0 mm 0.00 in0.0 mm 0.00 in0.0 mm
03:16 AM 36.9°F2.7°C 34.3°F1.3°C 90% 14.0 mph WNW22.5 kmh WNW 14.0 mph22.5 kmh 29.94 in1013.9 mb 0.00 in0.0 mm 0.00 in0.0 mm 0.00 in0.0 mm
03:21 AM 36.9°F2.7°C 34.3°F1.3°C 90% 3.0 mph NW4.8 kmh NW 14.0 mph22.5 kmh 29.95 in1014.2 mb 0.00 in0.0 mm 0.00 in0.0 mm 0.00 in0.0 mm
03:26 AM 36.9°F2.7°C 34.3°F1.3°C 90% 6.0 mph NW9.7 kmh NW 14.0 mph22.5 kmh 29.95 in1014.2 mb 0.00 in0.0 mm 0.00 in0.0 mm 0.00 in0.0 mm
03:31 AM 36.9°F2.7°C 34.3°F1.3°C 90% Calm Calm 14.0 mph22.5 kmh 29.95 in1014.2 mb 0.00 in0.0 mm 0.00 in0.0 mm 0.00 in0.0 mm
03:36 AM 36.9°F2.7°C 34.3°F1.3°C 90% 5.0 mph WNW8.0 kmh WNW 14.0 mph22.5 kmh 29.95 in1014.2 mb 0.00 in0.0 mm 0.00 in0.0 mm 0.00 in0.0 mm
03:41 AM 36.9°F2.7°C 34.3°F1.3°C 90% 7.0 mph NW11.3 kmh NW 14.0 mph22.5 kmh 29.95 in1014.2 mb 0.00 in0.0 mm 0.00 in0.0 mm 0.00 in0.0 mm
03:46 AM 36.9°F2.7°C 34.3°F1.3°C 90% 7.0 mph NW11.3 kmh NW 15.0 mph24.1 kmh 29.95 in1014.2 mb 0.00 in0.0 mm 0.00 in0.0 mm 0.00 in0.0 mm
03:51 AM 36.9°F2.7°C 34.3°F1.3°C 90% 6.0 mph NW9.7 kmh NW 15.0 mph24.1 kmh 29.96 in1014.6 mb 0.00 in0.0 mm 0.00 in0.0 mm 0.00 in0.0 mm
03:56 AM 36.9°F2.7°C 34.3°F1.3°C 90% 5.0 mph NW8.0 kmh NW 15.0 mph24.1 kmh 29.96 in1014.6 mb 0.00 in0.0 mm 0.00 in0.0 mm 0.00 in0.0 mm
04:01 AM 36.9°F2.7°C 34.3°F1.3°C 90% 3.0 mph NW4.8 kmh NW 15.0 mph24.1 kmh 29.96 in1014.6 mb 0.00 in0.0 mm 0.00 in0.0 mm 0.00 in0.0 mm
04:06 AM 36.9°F2.7°C 34.3°F1.3°C 90% 4.0 mph NW6.4 kmh NW 13.0 mph20.9 kmh 29.97 in1014.9 mb 0.00 in0.0 mm 0.00 in0.0 mm 0.00 in0.0 mm
04:11 AM 36.9°F2.7°C 34.3°F1.3°C 90% 8.0 mph WNW12.9 kmh WNW 15.0 mph24.1 kmh 29.97 in1014.9 mb 0.00 in0.0 mm 0.00 in0.0 mm 0.00 in0.0 mm
04:16 AM 36.9°F2.7°C 34.3°F1.3°C 90% 3.0 mph NW4.8 kmh NW 15.0 mph24.1 kmh 29.98 in1015.2 mb 0.00 in0.0 mm 0.00 in0.0 mm 0.00 in0.0 mm
04:21 AM 36.9°F2.7°C 34.3°F1.3°C 90% 5.0 mph WNW8.0 kmh WNW 15.0 mph24.1 kmh 29.97 in1014.9 mb 0.00 in0.0 mm 0.00 in0.0 mm 0.00 in0.0 mm
04:26 AM 36.9°F2.7°C 34.3°F1.3°C 90% 5.0 mph WNW8.0 kmh WNW 15.0 mph24.1 kmh 29.97 in1014.9 mb 0.00 in0.0 mm 0.00 in0.0 mm 0.00 in0.0 mm
04:31 AM 36.9°F2.7°C 34.3°F1.3°C 90% Calm Calm 10.0 mph16.1 kmh 29.96 in1014.6 mb 0.00 in0.0 mm 0.00 in0.0 mm 0.00 in0.0 mm
04:36 AM 36.9°F2.7°C 34.3°F1.3°C 90% 2.0 mph NW3.2 kmh NW 10.0 mph16.1 kmh 29.97 in1014.9 mb 0.00 in0.0 mm 0.00 in0.0 mm 0.00 in0.0 mm
04:41 AM 36.8°F2.7°C 34.2°F1.2°C 90% 6.0 mph WNW9.7 kmh WNW 10.0 mph16.1 kmh 29.97 in1014.9 mb 0.00 in0.0 mm 0.00 in0.0 mm 0.00 in0.0 mm
04:46 AM 36.8°F2.7°C 34.2°F1.2°C 90% 5.0 mph WNW8.0 kmh WNW 10.0 mph16.1 kmh 29.97 in1014.9 mb 0.00 in0.0 mm 0.00 in0.0 mm 0.00 in0.0 mm
04:51 AM 36.8°F2.7°C 34.2°F1.2°C 90% 3.0 mph NW4.8 kmh NW 10.0 mph16.1 kmh 29.98 in1015.2 mb 0.00 in0.0 mm 0.00 in0.0 mm 0.00 in0.0 mm
04:56 AM 36.8°F2.7°C 34.2°F1.2°C 90% 5.0 mph NW8.0 kmh NW 10.0 mph16.1 kmh 29.97 in1014.9 mb 0.00 in0.0 mm 0.00 in0.0 mm 0.00 in0.0 mm
05:01 AM 36.8°F2.7°C 34.2°F1.2°C 90% 3.0 mph NW4.8 kmh NW 10.0 mph16.1 kmh 29.97 in1014.9 mb 0.00 in0.0 mm 0.00 in0.0 mm 0.00 in0.0 mm
05:06 AM 36.8°F2.7°C 34.2°F1.2°C 90% 5.0 mph NW8.0 kmh NW 9.0 mph14.5 kmh 29.97 in1014.9 mb 0.00 in0.0 mm 0.00 in0.0 mm 0.00 in0.0 mm
05:11 AM 36.7°F2.6°C 34.1°F1.2°C 90% 6.0 mph NW9.7 kmh NW 9.0 mph14.5 kmh 29.98 in1015.2 mb 0.00 in0.0 mm 0.00 in0.0 mm 0.00 in0.0 mm
05:16 AM 36.7°F2.6°C 34.1°F1.2°C 90% 3.0 mph NW4.8 kmh NW 8.0 mph12.9 kmh 29.98 in1015.2 mb 0.00 in0.0 mm 0.00 in0.0 mm 0.00 in0.0 mm
05:21 AM 36.7°F2.6°C 34.1°F1.2°C 90% 9.0 mph WNW14.5 kmh WNW 11.0 mph17.7 kmh 29.98 in1015.2 mb 0.00 in0.0 mm 0.00 in0.0 mm 0.00 in0.0 mm
05:26 AM 36.7°F2.6°C 34.1°F1.2°C 90% 2.0 mph NW3.2 kmh NW 11.0 mph17.7 kmh 29.98 in1015.2 mb 0.00 in0.0 mm 0.00 in0.0 mm 0.00 in0.0 mm
05:31 AM 36.7°F2.6°C 34.1°F1.2°C 90% 4.0 mph NW6.4 kmh NW 11.0 mph17.7 kmh 29.99 in1015.6 mb 0.00 in0.0 mm 0.00 in0.0 mm 0.00 in0.0 mm
05:36 AM 36.7°F2.6°C 34.1°F1.2°C 90% Calm Calm -- 29.99 in1015.6 mb 0.00 in0.0 mm 0.00 in0.0 mm 0.00 in0.0 mm
05:41 AM 36.7°F2.6°C 34.1°F1.2°C 90% 4.0 mph NW6.4 kmh NW 9.0 mph14.5 kmh 29.99 in1015.6 mb 0.00 in0.0 mm 0.00 in0.0 mm 0.00 in0.0 mm
05:46 AM 36.7°F2.6°C 34.1°F1.2°C 90% 5.0 mph NW8.0 kmh NW 9.0 mph14.5 kmh 29.99 in1015.6 mb 0.00 in0.0 mm 0.00 in0.0 mm 0.00 in0.0 mm
05:51 AM 36.7°F2.6°C 34.1°F1.2°C 90% 4.0 mph NW6.4 kmh NW 12.0 mph19.3 kmh 30.00 in1015.9 mb 0.00 in0.0 mm 0.00 in0.0 mm 0.00 in0.0 mm
05:56 AM 36.7°F2.6°C 34.1°F1.2°C 90% 2.0 mph NNW3.2 kmh NNW 12.0 mph19.3 kmh 30.00 in1015.9 mb 0.00 in0.0 mm 0.00 in0.0 mm 0.00 in0.0 mm
06:01 AM 36.7°F2.6°C 34.1°F1.2°C 90% 6.0 mph NW9.7 kmh NW 12.0 mph19.3 kmh 30.00 in1015.9 mb 0.00 in0.0 mm 0.00 in0.0 mm 0.00 in0.0 mm
06:06 AM 36.7°F2.6°C 34.1°F1.2°C 90% 5.0 mph NW8.0 kmh NW 12.0 mph19.3 kmh 30.00 in1015.9 mb 0.00 in0.0 mm 0.00 in0.0 mm 0.00 in0.0 mm
06:11 AM 36.6°F2.6°C 34.0°F1.1°C 90% 5.0 mph 8.0 kmh 11.0 mph17.7 kmh 30.00 in1015.9 mb 0.00 in0.0 mm 0.00 in0.0 mm 0.00 in0.0 mm
06:16 AM 36.6°F2.6°C 34.0°F1.1°C 90% 5.0 mph NW8.0 kmh NW 11.0 mph17.7 kmh 30.01 in1016.3 mb 0.00 in0.0 mm 0.00 in0.0 mm 0.00 in0.0 mm
06:21 AM 36.6°F2.6°C 34.0°F1.1°C 90% Calm Calm 9.0 mph14.5 kmh 30.01 in1016.3 mb 0.00 in0.0 mm 0.00 in0.0 mm 0.00 in0.0 mm
06:26 AM 36.7°F2.6°C 34.1°F1.2°C 90% 2.0 mph NW3.2 kmh NW 9.0 mph14.5 kmh 30.01 in1016.3 mb 0.00 in0.0 mm 0.00 in0.0 mm 0.00 in0.0 mm
06:31 AM 36.7°F2.6°C 34.1°F1.2°C 90% 2.0 mph NNW3.2 kmh NNW 8.0 mph12.9 kmh 30.02 in1016.6 mb 0.00 in0.0 mm 0.00 in0.0 mm 0.00 in0.0 mm
06:36 AM 36.7°F2.6°C 34.1°F1.2°C 90% 1.0 mph NNW1.6 kmh NNW 8.0 mph12.9 kmh 30.02 in1016.6 mb 0.00 in0.0 mm 0.00 in0.0 mm 0.00 in0.0 mm
06:41 AM 36.7°F2.6°C 34.1°F1.2°C 90% 2.0 mph NNW3.2 kmh NNW 8.0 mph12.9 kmh 30.02 in1016.6 mb 0.00 in0.0 mm 0.00 in0.0 mm 0.00 in0.0 mm
06:46 AM 36.6°F2.6°C 34.0°F1.1°C 90% 3.0 mph N4.8 kmh N 8.0 mph12.9 kmh 30.02 in1016.6 mb 0.00 in0.0 mm 0.00 in0.0 mm 0.00 in0.0 mm
06:51 AM 36.6°F2.6°C 34.0°F1.1°C 90% 4.0 mph NW6.4 kmh NW 8.0 mph12.9 kmh 30.02 in1016.6 mb 0.00 in0.0 mm 0.00 in0.0 mm 0.00 in0.0 mm
06:56 AM 36.6°F2.6°C 34.0°F1.1°C 90% 5.0 mph NW8.0 kmh NW 8.0 mph12.9 kmh 30.03 in1016.9 mb 0.00 in0.0 mm 0.00 in0.0 mm 0.00 in0.0 mm
07:01 AM 36.6°F2.6°C 34.0°F1.1°C 90% 1.0 mph N1.6 kmh N 8.0 mph12.9 kmh 30.03 in1016.9 mb 0.00 in0.0 mm 0.00 in0.0 mm 0.00 in0.0 mm
07:06 AM 36.6°F2.6°C 34.0°F1.1°C 90% 3.0 mph 4.8 kmh 7.0 mph11.3 kmh 30.04 in1017.3 mb 0.00 in0.0 mm 0.00 in0.0 mm 0.00 in0.0 mm
07:11 AM 36.6°F2.6°C 34.0°F1.1°C 90% Calm Calm 13.0 mph20.9 kmh 30.04 in1017.3 mb 0.00 in0.0 mm 0.00 in0.0 mm 0.00 in0.0 mm
07:16 AM 36.5°F2.5°C 33.9°F1.1°C 90% Calm Calm 13.0 mph20.9 kmh 30.04 in1017.3 mb 0.00 in0.0 mm 0.00 in0.0 mm 0.00 in0.0 mm
07:21 AM 36.5°F2.5°C 33.9°F1.1°C 90% 4.0 mph NW6.4 kmh NW 13.0 mph20.9 kmh 30.04 in1017.3 mb 0.00 in0.0 mm 0.00 in0.0 mm 0.00 in0.0 mm
07:26 AM 36.5°F2.5°C 33.9°F1.1°C 90% 2.0 mph NNW3.2 kmh NNW 13.0 mph20.9 kmh 30.05 in1017.6 mb 0.00 in0.0 mm 0.00 in0.0 mm 0.00 in0.0 mm
07:31 AM 36.6°F2.6°C 34.0°F1.1°C 90% 6.0 mph N9.7 kmh N 6.0 mph9.7 kmh 30.05 in1017.6 mb 0.00 in0.0 mm 0.00 in0.0 mm 0.00 in0.0 mm
07:36 AM 36.6°F2.6°C 34.0°F1.1°C 90% 5.0 mph NW8.0 kmh NW 7.0 mph11.3 kmh 30.06 in1017.9 mb 0.00 in0.0 mm 0.00 in0.0 mm 0.00 in0.0 mm
07:41 AM 36.6°F2.6°C 34.0°F1.1°C 90% 5.0 mph NW8.0 kmh NW 8.0 mph12.9 kmh 30.06 in1017.9 mb 0.00 in0.0 mm 0.00 in0.0 mm 0.00 in0.0 mm
07:46 AM 36.6°F2.6°C 34.0°F1.1°C 90% 5.0 mph NW8.0 kmh NW 8.0 mph12.9 kmh 30.06 in1017.9 mb 0.00 in0.0 mm 0.00 in0.0 mm 0.00 in0.0 mm
07:51 AM 36.6°F2.6°C 34.0°F1.1°C 90% Calm Calm 8.0 mph12.9 kmh 30.07 in1018.3 mb 0.00 in0.0 mm 0.00 in0.0 mm 0.00 in0.0 mm
07:56 AM 36.7°F2.6°C 34.1°F1.2°C 90% 2.0 mph NW3.2 kmh NW 8.0 mph12.9 kmh 30.07 in1018.3 mb 0.00 in0.0 mm 0.00 in0.0 mm 0.00 in0.0 mm
08:01 AM 36.6°F2.6°C 34.0°F1.1°C 90% 3.0 mph NNW4.8 kmh NNW 9.0 mph14.5 kmh 30.07 in1018.3 mb 0.00 in0.0 mm 0.00 in0.0 mm 0.00 in0.0 mm
08:06 AM 36.6°F2.6°C 34.0°F1.1°C 90% 2.0 mph N3.2 kmh N 12.0 mph19.3 kmh 30.08 in1018.6 mb 0.00 in0.0 mm 0.00 in0.0 mm 0.00 in0.0 mm
08:11 AM 36.7°F2.6°C 34.1°F1.2°C 90% Calm Calm 12.0 mph19.3 kmh 30.08 in1018.6 mb 0.00 in0.0 mm 0.00 in0.0 mm 0.00 in0.0 mm
08:16 AM 36.7°F2.6°C 34.1°F1.2°C 90% 2.0 mph N3.2 kmh N 12.0 mph19.3 kmh 30.09 in1019.0 mb 0.00 in0.0 mm 0.00 in0.0 mm 0.00 in0.0 mm
08:21 AM 36.7°F2.6°C 34.1°F1.2°C 90% Calm Calm -- 30.09 in1019.0 mb 0.00 in0.0 mm 0.00 in0.0 mm 0.00 in0.0 mm
08:26 AM 36.7°F2.6°C 34.1°F1.2°C 90% 4.0 mph NW6.4 kmh NW 9.0 mph14.5 kmh 30.09 in1019.0 mb 0.00 in0.0 mm 0.00 in0.0 mm 0.00 in0.0 mm
08:31 AM 36.6°F2.6°C 34.0°F1.1°C 90% 3.0 mph NW4.8 kmh NW 16.0 mph25.7 kmh 30.09 in1019.0 mb 0.00 in0.0 mm 0.00 in0.0 mm 0.00 in0.0 mm
08:36 AM 36.6°F2.6°C 34.0°F1.1°C 90% 6.0 mph NNW9.7 kmh NNW 16.0 mph25.7 kmh 30.10 in1019.3 mb 0.00 in0.0 mm 0.00 in0.0 mm 0.00 in0.0 mm
08:41 AM 36.5°F2.5°C 33.9°F1.1°C 90% 1.0 mph 1.6 kmh 16.0 mph25.7 kmh 30.10 in1019.3 mb 0.00 in0.0 mm 0.00 in0.0 mm 0.00 in0.0 mm
08:46 AM 36.5°F2.5°C 33.9°F1.1°C 90% 2.0 mph NNW3.2 kmh NNW 16.0 mph25.7 kmh 30.11 in1019.6 mb 0.00 in0.0 mm 0.00 in0.0 mm 0.00 in0.0 mm
08:51 AM 36.4°F2.4°C 33.8°F1.0°C 90% 6.0 mph N9.7 kmh N 12.0 mph19.3 kmh 30.11 in1019.6 mb 0.00 in0.0 mm 0.00 in0.0 mm 0.00 in0.0 mm
08:56 AM 36.4°F2.4°C 33.8°F1.0°C 90% 5.0 mph N8.0 kmh N 12.0 mph19.3 kmh 30.11 in1019.6 mb 0.00 in0.0 mm 0.00 in0.0 mm 0.00 in0.0 mm
09:01 AM 36.3°F2.4°C 33.7°F0.9°C 90% 6.0 mph NNW9.7 kmh NNW 12.0 mph19.3 kmh 30.11 in1019.6 mb 0.00 in0.0 mm 0.00 in0.0 mm 0.00 in0.0 mm
09:06 AM 36.2°F2.3°C 33.6°F0.9°C 90% 1.0 mph NNE1.6 kmh NNE 1.0 mph1.6 kmh 30.11 in1019.6 mb 0.00 in0.0 mm 0.00 in0.0 mm 0.00 in0.0 mm
09:11 AM 36.2°F2.3°C 33.6°F0.9°C 90% 4.0 mph N6.4 kmh N 9.0 mph14.5 kmh 30.12 in1020.0 mb 0.00 in0.0 mm 0.00 in0.0 mm 0.00 in0.0 mm
09:16 AM 36.3°F2.4°C 33.7°F0.9°C 90% Calm Calm 11.0 mph17.7 kmh 30.12 in1020.0 mb 0.00 in0.0 mm 0.00 in0.0 mm 0.00 in0.0 mm
09:21 AM 36.3°F2.4°C 33.7°F0.9°C 90% Calm Calm 7.0 mph11.3 kmh 30.12 in1020.0 mb 0.00 in0.0 mm 0.00 in0.0 mm 0.00 in0.0 mm
09:26 AM 36.4°F2.4°C 33.8°F1.0°C 90% 6.0 mph NNW9.7 kmh NNW 7.0 mph11.3 kmh 30.12 in1020.0 mb 0.00 in0.0 mm 0.00 in0.0 mm 0.00 in0.0 mm
09:31 AM 36.4°F2.4°C 33.8°F1.0°C 90% 3.0 mph NW4.8 kmh NW 7.0 mph11.3 kmh 30.12 in1020.0 mb 0.00 in0.0 mm 0.00 in0.0 mm 0.00 in0.0 mm
09:36 AM 36.5°F2.5°C 33.9°F1.1°C 90% 2.0 mph NW3.2 kmh NW 10.0 mph16.1 kmh 30.12 in1020.0 mb 0.00 in0.0 mm 0.00 in0.0 mm 0.00 in0.0 mm
09:41 AM 36.5°F2.5°C 33.9°F1.1°C 90% 6.0 mph N9.7 kmh N 15.0 mph24.1 kmh 30.12 in1020.0 mb 0.00 in0.0 mm 0.00 in0.0 mm 0.00 in0.0 mm
09:46 AM 36.5°F2.5°C 33.9°F1.1°C 90% 7.0 mph N11.3 kmh N 15.0 mph24.1 kmh 30.12 in1020.0 mb 0.00 in0.0 mm 0.00 in0.0 mm 0.00 in0.0 mm
09:51 AM 36.5°F2.5°C 33.9°F1.1°C 90% 6.0 mph N9.7 kmh N 15.0 mph24.1 kmh 30.12 in1020.0 mb 0.00 in0.0 mm 0.00 in0.0 mm 0.00 in0.0 mm
09:56 AM 36.5°F2.5°C 33.9°F1.1°C 90% 5.0 mph NW8.0 kmh NW 15.0 mph24.1 kmh 30.12 in1020.0 mb 0.00 in0.0 mm 0.00 in0.0 mm 0.00 in0.0 mm
10:01 AM 36.5°F2.5°C 33.9°F1.1°C 90% 1.0 mph N1.6 kmh N 12.0 mph19.3 kmh 30.12 in1020.0 mb 0.00 in0.0 mm 0.00 in0.0 mm 0.00 in0.0 mm
10:06 AM 36.6°F2.6°C 34.0°F1.1°C 90% 2.0 mph N3.2 kmh N 12.0 mph19.3 kmh 30.12 in1020.0 mb 0.00 in0.0 mm 0.00 in0.0 mm 0.00 in0.0 mm
10:11 AM 36.7°F2.6°C 34.1°F1.2°C 90% 7.0 mph N11.3 kmh N 10.0 mph16.1 kmh 30.12 in1020.0 mb 0.00 in0.0 mm 0.00 in0.0 mm 0.00 in0.0 mm
10:16 AM 36.7°F2.6°C 33.8°F1.0°C 89% 4.0 mph NE6.4 kmh NE 10.0 mph16.1 kmh 30.12 in1020.0 mb 0.00 in0.0 mm 0.00 in0.0 mm 0.00 in0.0 mm
10:21 AM 36.8°F2.7°C 33.9°F1.1°C 89% 9.0 mph NW14.5 kmh NW 13.0 mph20.9 kmh 30.12 in1020.0 mb 0.00 in0.0 mm 0.00 in0.0 mm 0.00 in0.0 mm
10:26 AM 37.0°F2.8°C 34.1°F1.2°C 89% 7.0 mph N11.3 kmh N 13.0 mph20.9 kmh 30.12 in1020.0 mb 0.00 in0.0 mm 0.00 in0.0 mm 0.00 in0.0 mm
10:31 AM 37.3°F2.9°C 34.4°F1.3°C 89% 7.0 mph NNE11.3 kmh NNE 13.0 mph20.9 kmh 30.13 in1020.3 mb 0.00 in0.0 mm 0.00 in0.0 mm 0.00 in0.0 mm
10:36 AM 37.2°F2.9°C 34.3°F1.3°C 89% 5.0 mph NNE8.0 kmh NNE 13.0 mph20.9 kmh 30.13 in1020.3 mb 0.00 in0.0 mm 0.00 in0.0 mm 0.00 in0.0 mm
10:41 AM 37.3°F2.9°C 34.4°F1.3°C 89% 8.0 mph WNW12.9 kmh WNW 12.0 mph19.3 kmh 30.13 in1020.3 mb 0.00 in0.0 mm 0.00 in0.0 mm 0.00 in0.0 mm
10:46 AM 37.4°F3.0°C 34.5°F1.4°C 89% 5.0 mph NNW8.0 kmh NNW 12.0 mph19.3 kmh 30.13 in1020.3 mb 0.00 in0.0 mm 0.00 in0.0 mm 0.00 in0.0 mm
10:51 AM 37.4°F3.0°C 34.5°F1.4°C 89% 7.0 mph 11.3 kmh 11.0 mph17.7 kmh 30.14 in1020.7 mb 0.00 in0.0 mm 0.00 in0.0 mm 0.00 in0.0 mm
10:56 AM 37.4°F3.0°C 34.2°F1.2°C 88% 9.0 mph NE14.5 kmh NE 12.0 mph19.3 kmh 30.14 in1020.7 mb 0.00 in0.0 mm 0.00 in0.0 mm 0.00 in0.0 mm
11:01 AM 37.4°F3.0°C 34.2°F1.2°C 88% 2.0 mph NW3.2 kmh NW 12.0 mph19.3 kmh 30.14 in1020.7 mb 0.00 in0.0 mm 0.00 in0.0 mm 0.00 in0.0 mm
11:06 AM 37.4°F3.0°C 34.2°F1.2°C 88% 8.0 mph NNW12.9 kmh NNW 12.0 mph19.3 kmh 30.14 in1020.7 mb 0.00 in0.0 mm 0.00 in0.0 mm 0.00 in0.0 mm
11:11 AM 37.4°F3.0°C 33.9°F1.1°C 87% 8.0 mph NNE12.9 kmh NNE 12.0 mph19.3 kmh 30.14 in1020.7 mb 0.00 in0.0 mm 0.00 in0.0 mm 0.00 in0.0 mm
11:16 AM 37.2°F2.9°C 33.7°F0.9°C 87% 4.0 mph NNW6.4 kmh NNW 12.0 mph19.3 kmh 30.14 in1020.7 mb 0.00 in0.0 mm 0.00 in0.0 mm 0.00 in0.0 mm
11:21 AM 37.1°F2.8°C 33.6°F0.9°C 87% 4.0 mph NE6.4 kmh NE 12.0 mph19.3 kmh 30.14 in1020.7 mb 0.00 in0.0 mm 0.00 in0.0 mm 0.00 in0.0 mm
11:26 AM 37.2°F2.9°C 33.7°F0.9°C 87% 4.0 mph NNW6.4 kmh NNW 11.0 mph17.7 kmh 30.14 in1020.7 mb 0.00 in0.0 mm 0.00 in0.0 mm 0.00 in0.0 mm
11:31 AM 37.1°F2.8°C 33.6°F0.9°C 87% 7.0 mph NE11.3 kmh NE 11.0 mph17.7 kmh 30.14 in1020.7 mb 0.00 in0.0 mm 0.00 in0.0 mm 0.00 in0.0 mm
11:36 AM 37.1°F2.8°C 33.3°F0.7°C 86% 9.0 mph NNW14.5 kmh NNW 14.0 mph22.5 kmh 30.15 in1021.0 mb 0.00 in0.0 mm 0.00 in0.0 mm 0.00 in0.0 mm
11:41 AM 37.3°F2.9°C 33.5°F0.8°C 86% 5.0 mph NW8.0 kmh NW 14.0 mph22.5 kmh 30.15 in1021.0 mb 0.00 in0.0 mm 0.00 in0.0 mm 0.00 in0.0 mm
11:46 AM 37.4°F3.0°C 33.6°F0.9°C 86% 4.0 mph NNW6.4 kmh NNW 14.0 mph22.5 kmh 30.15 in1021.0 mb 0.00 in0.0 mm 0.00 in0.0 mm 0.00 in0.0 mm
11:51 AM 37.3°F2.9°C 33.2°F0.7°C 85% 7.0 mph N11.3 kmh N 14.0 mph22.5 kmh 30.16 in1021.3 mb 0.00 in0.0 mm 0.00 in0.0 mm 0.00 in0.0 mm
11:56 AM 37.5°F3.1°C 33.4°F0.8°C 85% 2.0 mph NW3.2 kmh NW 13.0 mph20.9 kmh 30.15 in1021.0 mb 0.00 in0.0 mm 0.00 in0.0 mm 0.00 in0.0 mm
12:01 PM 37.6°F3.1°C 33.5°F0.8°C 85% 5.0 mph N8.0 kmh N 13.0 mph20.9 kmh 30.15 in1021.0 mb 0.00 in0.0 mm 0.00 in0.0 mm 0.00 in0.0 mm
12:06 PM 37.7°F3.2°C 33.6°F0.9°C 85% 6.0 mph NNE9.7 kmh NNE 11.0 mph17.7 kmh 30.16 in1021.3 mb 0.00 in0.0 mm 0.00 in0.0 mm 0.00 in0.0 mm
12:11 PM 37.8°F3.2°C 33.4°F0.8°C 84% 4.0 mph NNE6.4 kmh NNE 11.0 mph17.7 kmh 30.16 in1021.3 mb 0.00 in0.0 mm 0.00 in0.0 mm 0.00 in0.0 mm
12:16 PM 37.9°F3.3°C 33.5°F0.8°C 84% 6.0 mph NNE9.7 kmh NNE 10.0 mph16.1 kmh 30.16 in1021.3 mb 0.00 in0.0 mm 0.00 in0.0 mm 0.00 in0.0 mm
12:21 PM 38.0°F3.3°C 33.6°F0.9°C 84% 3.0 mph N4.8 kmh N 10.0 mph16.1 kmh 30.16 in1021.3 mb 0.00 in0.0 mm 0.00 in0.0 mm 0.00 in0.0 mm
12:26 PM 38.2°F3.4°C 33.8°F1.0°C 84% 3.0 mph WNW4.8 kmh WNW 10.0 mph16.1 kmh 30.16 in1021.3 mb 0.00 in0.0 mm 0.00 in0.0 mm 0.00 in0.0 mm
12:31 PM 38.3°F3.5°C 33.9°F1.1°C 84% 3.0 mph NNE4.8 kmh NNE 10.0 mph16.1 kmh 30.17 in1021.7 mb 0.00 in0.0 mm 0.00 in0.0 mm 0.00 in0.0 mm
12:36 PM 38.4°F3.6°C 34.0°F1.1°C 84% 3.0 mph NW4.8 kmh NW 10.0 mph16.1 kmh 30.16 in1021.3 mb 0.00 in0.0 mm 0.00 in0.0 mm 0.00 in0.0 mm
12:41 PM 38.4°F3.6°C 34.0°F1.1°C 84% 5.0 mph NNE8.0 kmh NNE 10.0 mph16.1 kmh 30.16 in1021.3 mb 0.00 in0.0 mm 0.00 in0.0 mm 0.00 in0.0 mm
12:46 PM 38.4°F3.6°C 33.7°F0.9°C 83% 3.0 mph NW4.8 kmh NW 10.0 mph16.1 kmh 30.16 in1021.3 mb 0.00 in0.0 mm 0.00 in0.0 mm 0.00 in0.0 mm
12:51 PM 38.5°F3.6°C 33.8°F1.0°C 83% 4.0 mph NE6.4 kmh NE 10.0 mph16.1 kmh 30.16 in1021.3 mb 0.00 in0.0 mm 0.00 in0.0 mm 0.00 in0.0 mm
12:56 PM 38.5°F3.6°C 33.8°F1.0°C 83% 2.0 mph NNW3.2 kmh NNW 10.0 mph16.1 kmh 30.16 in1021.3 mb 0.00 in0.0 mm 0.00 in0.0 mm 0.00 in0.0 mm
01:01 PM 38.6°F3.7°C 33.9°F1.1°C 83% 6.0 mph NNW9.7 kmh NNW 10.0 mph16.1 kmh 30.16 in1021.3 mb 0.00 in0.0 mm 0.00 in0.0 mm 0.00 in0.0 mm
01:06 PM 38.6°F3.7°C 33.9°F1.1°C 83% 5.0 mph W8.0 kmh W 11.0 mph17.7 kmh 30.16 in1021.3 mb 0.00 in0.0 mm 0.00 in0.0 mm 0.00 in0.0 mm
01:11 PM 38.7°F3.7°C 34.0°F1.1°C 83% 3.0 mph NNW4.8 kmh NNW 11.0 mph17.7 kmh 30.16 in1021.3 mb 0.00 in0.0 mm 0.00 in0.0 mm 0.00 in0.0 mm
01:16 PM 38.6°F3.7°C 33.6°F0.9°C 82% 5.0 mph NNW8.0 kmh NNW 11.0 mph17.7 kmh 30.16 in1021.3 mb 0.00 in0.0 mm 0.00 in0.0 mm 0.00 in0.0 mm
01:21 PM 38.4°F3.6°C 33.4°F0.8°C 82% 5.0 mph NW8.0 kmh NW 11.0 mph17.7 kmh 30.16 in1021.3 mb 0.00 in0.0 mm 0.00 in0.0 mm 0.00 in0.0 mm
01:26 PM 38.6°F3.7°C 33.6°F0.9°C 82% 2.0 mph NW3.2 kmh NW 10.0 mph16.1 kmh 30.16 in1021.3 mb 0.00 in0.0 mm 0.00 in0.0 mm 0.00 in0.0 mm
01:31 PM 38.7°F3.7°C 34.0°F1.1°C 83% 3.0 mph NW4.8 kmh NW 10.0 mph16.1 kmh 30.16 in1021.3 mb 0.00 in0.0 mm 0.00 in0.0 mm 0.00 in0.0 mm
01:36 PM 38.7°F3.7°C 33.7°F0.9°C 82% 2.0 mph NNE3.2 kmh NNE 9.0 mph14.5 kmh 30.16 in1021.3 mb 0.00 in0.0 mm 0.00 in0.0 mm 0.00 in0.0 mm
01:41 PM 38.9°F3.8°C 33.9°F1.1°C 82% Calm Calm 9.0 mph14.5 kmh 30.16 in1021.3 mb 0.00 in0.0 mm 0.00 in0.0 mm 0.00 in0.0 mm
01:46 PM 39.0°F3.9°C 33.6°F0.9°C 81% 7.0 mph N11.3 kmh N 7.0 mph11.3 kmh 30.16 in1021.3 mb 0.00 in0.0 mm 0.00 in0.0 mm 0.00 in0.0 mm
01:51 PM 39.4°F4.1°C 34.3°F1.3°C 82% 4.0 mph NW6.4 kmh NW 7.0 mph11.3 kmh 30.16 in1021.3 mb 0.00 in0.0 mm 0.00 in0.0 mm 0.00 in0.0 mm
01:56 PM 39.7°F4.3°C 34.3°F1.3°C 81% 4.0 mph WNW6.4 kmh WNW 8.0 mph12.9 kmh 30.16 in1021.3 mb 0.00 in0.0 mm 0.00 in0.0 mm 0.00 in0.0 mm
02:01 PM 39.4°F4.1°C 33.7°F0.9°C 80% 7.0 mph WNW11.3 kmh WNW 10.0 mph16.1 kmh 30.16 in1021.3 mb 0.00 in0.0 mm 0.00 in0.0 mm 0.00 in0.0 mm
02:06 PM 39.6°F4.2°C 34.2°F1.2°C 81% 3.0 mph W4.8 kmh W 10.0 mph16.1 kmh 30.17 in1021.7 mb 0.00 in0.0 mm 0.00 in0.0 mm 0.00 in0.0 mm
02:11 PM 39.5°F4.2°C 33.5°F0.8°C 79% 5.0 mph NW8.0 kmh NW 10.0 mph16.1 kmh 30.16 in1021.3 mb 0.00 in0.0 mm 0.00 in0.0 mm 0.00 in0.0 mm
02:16 PM 39.8°F4.3°C 34.1°F1.2°C 80% 8.0 mph WNW12.9 kmh WNW 11.0 mph17.7 kmh 30.16 in1021.3 mb 0.00 in0.0 mm 0.00 in0.0 mm 0.00 in0.0 mm
02:21 PM 39.9°F4.4°C 33.9°F1.1°C 79% 8.0 mph WNW12.9 kmh WNW 11.0 mph17.7 kmh 30.16 in1021.3 mb 0.00 in0.0 mm 0.00 in0.0 mm 0.00 in0.0 mm
02:26 PM 40.1°F4.5°C 33.7°F0.9°C 78% 5.0 mph W8.0 kmh W 11.0 mph17.7 kmh 30.16 in1021.3 mb 0.00 in0.0 mm 0.00 in0.0 mm 0.00 in0.0 mm
02:31 PM 40.3°F4.6°C 33.9°F1.1°C 78% 4.0 mph NW6.4 kmh NW 11.0 mph17.7 kmh 30.16 in1021.3 mb 0.00 in0.0 mm 0.00 in0.0 mm 0.00 in0.0 mm
02:36 PM 41.1°F5.1°C 35.0°F1.7°C 79% 5.0 mph W8.0 kmh W 11.0 mph17.7 kmh 30.15 in1021.0 mb 0.00 in0.0 mm 0.00 in0.0 mm 0.00 in0.0 mm
02:41 PM 41.2°F5.1°C 35.1°F1.7°C 79% 6.0 mph WNW9.7 kmh WNW 11.0 mph17.7 kmh 30.15 in1021.0 mb 0.00 in0.0 mm 0.00 in0.0 mm 0.00 in0.0 mm
02:46 PM 41.2°F5.1°C 34.8°F1.6°C 78% 4.0 mph W6.4 kmh W 11.0 mph17.7 kmh 30.16 in1021.3 mb 0.00 in0.0 mm 0.00 in0.0 mm 0.00 in0.0 mm
02:51 PM 41.4°F5.2°C 35.3°F1.8°C 79% 6.0 mph W9.7 kmh W 9.0 mph14.5 kmh 30.16 in1021.3 mb 0.00 in0.0 mm 0.00 in0.0 mm 0.00 in0.0 mm
02:56 PM 41.5°F5.3°C 34.8°F1.6°C 77% 3.0 mph WNW4.8 kmh WNW 10.0 mph16.1 kmh 30.16 in1021.3 mb 0.00 in0.0 mm 0.00 in0.0 mm 0.00 in0.0 mm
03:01 PM 41.6°F5.3°C 34.9°F1.6°C 77% 3.0 mph NW4.8 kmh NW 12.0 mph19.3 kmh 30.16 in1021.3 mb 0.00 in0.0 mm 0.00 in0.0 mm 0.00 in0.0 mm
03:06 PM 41.5°F5.3°C 34.4°F1.3°C 76% 2.0 mph WNW3.2 kmh WNW 12.0 mph19.3 kmh 30.16 in1021.3 mb 0.00 in0.0 mm 0.00 in0.0 mm 0.00 in0.0 mm
03:11 PM 41.8°F5.4°C 34.7°F1.5°C 76% 4.0 mph NW6.4 kmh NW 12.0 mph19.3 kmh 30.16 in1021.3 mb 0.00 in0.0 mm 0.00 in0.0 mm 0.00 in0.0 mm
03:16 PM 41.9°F5.5°C 34.8°F1.6°C 76% 5.0 mph W8.0 kmh W 12.0 mph19.3 kmh 30.16 in1021.3 mb 0.00 in0.0 mm 0.00 in0.0 mm 0.00 in0.0 mm
03:21 PM 42.2°F5.7°C 35.1°F1.7°C 76% 6.0 mph WNW9.7 kmh WNW 12.0 mph19.3 kmh 30.16 in1021.3 mb 0.00 in0.0 mm 0.00 in0.0 mm 0.00 in0.0 mm
03:26 PM 42.6°F5.9°C 35.5°F1.9°C 76% 3.0 mph WNW4.8 kmh WNW 12.0 mph19.3 kmh 30.16 in1021.3 mb 0.00 in0.0 mm 0.00 in0.0 mm 0.00 in0.0 mm
03:31 PM 42.5°F5.8°C 35.4°F1.9°C 76% 4.0 mph W6.4 kmh W 11.0 mph17.7 kmh 30.16 in1021.3 mb 0.00 in0.0 mm 0.00 in0.0 mm 0.00 in0.0 mm
03:36 PM 42.4°F5.8°C 34.9°F1.6°C 75% 4.0 mph WNW6.4 kmh WNW 11.0 mph17.7 kmh 30.16 in1021.3 mb 0.00 in0.0 mm 0.00 in0.0 mm 0.00 in0.0 mm
03:41 PM 42.6°F5.9°C 35.1°F1.7°C 75% 6.0 mph WNW9.7 kmh WNW 10.0 mph16.1 kmh 30.17 in1021.7 mb 0.00 in0.0 mm 0.00 in0.0 mm 0.00 in0.0 mm
03:46 PM 42.8°F6.0°C 35.0°F1.7°C 74% 9.0 mph W14.5 kmh W 12.0 mph19.3 kmh 30.17 in1021.7 mb 0.00 in0.0 mm 0.00 in0.0 mm 0.00 in0.0 mm
03:51 PM 42.9°F6.1°C 35.1°F1.7°C 74% 3.0 mph W4.8 kmh W 12.0 mph19.3 kmh 30.17 in1021.7 mb 0.00 in0.0 mm 0.00 in0.0 mm 0.00 in0.0 mm
03:56 PM 43.0°F6.1°C 35.5°F1.9°C 75% 9.0 mph W14.5 kmh W 13.0 mph20.9 kmh 30.17 in1021.7 mb 0.00 in0.0 mm 0.00 in0.0 mm 0.00 in0.0 mm
04:01 PM 42.8°F6.0°C 34.6°F1.4°C 73% 4.0 mph WNW6.4 kmh WNW 13.0 mph20.9 kmh 30.17 in1021.7 mb 0.00 in0.0 mm 0.00 in0.0 mm 0.00 in0.0 mm
04:06 PM 42.8°F6.0°C 34.6°F1.4°C 73% 3.0 mph W4.8 kmh W 13.0 mph20.9 kmh 30.17 in1021.7 mb 0.00 in0.0 mm 0.00 in0.0 mm 0.00 in0.0 mm
04:11 PM 43.4°F6.3°C 35.9°F2.2°C 75% 5.0 mph WNW8.0 kmh WNW 13.0 mph20.9 kmh 30.17 in1021.7 mb 0.00 in0.0 mm 0.00 in0.0 mm 0.00 in0.0 mm
04:16 PM 43.5°F6.4°C 35.7°F2.1°C 74% 8.0 mph NW12.9 kmh NW 10.0 mph16.1 kmh 30.18 in1022.0 mb 0.00 in0.0 mm 0.00 in0.0 mm 0.00 in0.0 mm
04:21 PM 43.6°F6.4°C 35.4°F1.9°C 73% 4.0 mph NW6.4 kmh NW 11.0 mph17.7 kmh 30.18 in1022.0 mb 0.00 in0.0 mm 0.00 in0.0 mm 0.00 in0.0 mm
04:26 PM 44.1°F6.7°C 35.9°F2.2°C 73% 3.0 mph W4.8 kmh W 11.0 mph17.7 kmh 30.18 in1022.0 mb 0.00 in0.0 mm 0.00 in0.0 mm 0.00 in0.0 mm
04:31 PM 44.1°F6.7°C 35.2°F1.8°C 71% 4.0 mph W6.4 kmh W 11.0 mph17.7 kmh 30.18 in1022.0 mb 0.00 in0.0 mm 0.00 in0.0 mm 0.00 in0.0 mm
04:36 PM 44.8°F7.1°C 36.6°F2.6°C 73% Calm Calm 11.0 mph17.7 kmh 30.18 in1022.0 mb 0.00 in0.0 mm 0.00 in0.0 mm 0.00 in0.0 mm
04:41 PM 44.8°F7.1°C 35.8°F2.1°C 71% 5.0 mph WNW8.0 kmh WNW 10.0 mph16.1 kmh 30.18 in1022.0 mb 0.00 in0.0 mm 0.00 in0.0 mm 0.00 in0.0 mm
04:46 PM 44.9°F7.2°C 35.9°F2.2°C 71% 5.0 mph NW8.0 kmh NW 10.0 mph16.1 kmh 30.18 in1022.0 mb 0.00 in0.0 mm 0.00 in0.0 mm 0.00 in0.0 mm
04:51 PM 44.8°F7.1°C 35.8°F2.1°C 71% 8.0 mph WNW12.9 kmh WNW 8.0 mph12.9 kmh 30.19 in1022.4 mb 0.00 in0.0 mm 0.00 in0.0 mm 0.00 in0.0 mm
04:56 PM 44.9°F7.2°C 35.9°F2.2°C 71% 4.0 mph WNW6.4 kmh WNW 9.0 mph14.5 kmh 30.19 in1022.4 mb 0.00 in0.0 mm 0.00 in0.0 mm 0.00 in0.0 mm
05:01 PM 44.9°F7.2°C 35.6°F2.0°C 70% 5.0 mph WNW8.0 kmh WNW 9.0 mph14.5 kmh 30.19 in1022.4 mb 0.00 in0.0 mm 0.00 in0.0 mm 0.00 in0.0 mm
05:06 PM 45.0°F7.2°C 36.0°F2.2°C 71% 6.0 mph NW9.7 kmh NW 11.0 mph17.7 kmh 30.19 in1022.4 mb 0.00 in0.0 mm 0.00 in0.0 mm 0.00 in0.0 mm
05:11 PM 45.2°F7.3°C 36.2°F2.3°C 71% 5.0 mph WNW8.0 kmh WNW 11.0 mph17.7 kmh 30.19 in1022.4 mb 0.00 in0.0 mm 0.00 in0.0 mm 0.00 in0.0 mm
05:16 PM 45.1°F7.3°C 35.8°F2.1°C 70% 4.0 mph WNW6.4 kmh WNW 11.0 mph17.7 kmh 30.19 in1022.4 mb 0.00 in0.0 mm 0.00 in0.0 mm 0.00 in0.0 mm
05:21 PM 45.2°F7.3°C 35.8°F2.1°C 70% 8.0 mph W12.9 kmh W 11.0 mph17.7 kmh 30.19 in1022.4 mb 0.00 in0.0 mm 0.00 in0.0 mm 0.00 in0.0 mm
05:26 PM 45.2°F7.3°C 35.8°F2.1°C 70% 3.0 mph NW4.8 kmh NW 9.0 mph14.5 kmh 30.19 in1022.4 mb 0.00 in0.0 mm 0.00 in0.0 mm 0.00 in0.0 mm
05:31 PM 45.4°F7.4°C 36.0°F2.2°C 70% 3.0 mph NW4.8 kmh NW 9.0 mph14.5 kmh 30.19 in1022.4 mb 0.00 in0.0 mm 0.00 in0.0 mm 0.00 in0.0 mm
05:36 PM 45.4°F7.4°C 35.7°F2.1°C 69% 1.0 mph WSW1.6 kmh WSW 5.0 mph8.0 kmh 30.19 in1022.4 mb 0.00 in0.0 mm 0.00 in0.0 mm 0.00 in0.0 mm
05:41 PM 45.5°F7.5°C 35.8°F2.1°C 69% 4.0 mph NW6.4 kmh NW 6.0 mph9.7 kmh 30.19 in1022.4 mb 0.00 in0.0 mm 0.00 in0.0 mm 0.00 in0.0 mm
05:46 PM 45.5°F7.5°C 35.4°F1.9°C 68% Calm Calm 6.0 mph9.7 kmh 30.19 in1022.4 mb 0.00 in0.0 mm 0.00 in0.0 mm 0.00 in0.0 mm
05:51 PM 45.5°F7.5°C 35.4°F1.9°C 68% Calm Calm 6.0 mph9.7 kmh 30.19 in1022.4 mb 0.00 in0.0 mm 0.00 in0.0 mm 0.00 in0.0 mm
05:56 PM 45.6°F7.6°C 35.5°F1.9°C 68% Calm Calm 2.0 mph3.2 kmh 30.19 in1022.4 mb 0.00 in0.0 mm 0.00 in0.0 mm 0.00 in0.0 mm
06:01 PM 45.7°F7.6°C 35.6°F2.0°C 68% Calm Calm -- 30.18 in1022.0 mb 0.00 in0.0 mm 0.00 in0.0 mm 0.00 in0.0 mm
06:06 PM 45.8°F7.7°C 35.7°F2.1°C 68% Calm Calm -- 30.18 in1022.0 mb 0.00 in0.0 mm 0.00 in0.0 mm 0.00 in0.0 mm
06:11 PM 45.8°F7.7°C 35.3°F1.8°C 67% Calm Calm -- 30.18 in1022.0 mb 0.00 in0.0 mm 0.00 in0.0 mm 0.00 in0.0 mm
06:16 PM 45.9°F7.7°C 35.4°F1.9°C 67% Calm Calm -- 30.18 in1022.0 mb 0.00 in0.0 mm 0.00 in0.0 mm 0.00 in0.0 mm
06:21 PM 46.1°F7.8°C 35.6°F2.0°C 67% Calm Calm -- 30.18 in1022.0 mb 0.00 in0.0 mm 0.00 in0.0 mm 0.00 in0.0 mm
06:26 PM 46.1°F7.8°C 35.2°F1.8°C 66% Calm Calm -- 30.18 in1022.0 mb 0.00 in0.0 mm 0.00 in0.0 mm 0.00 in0.0 mm
06:31 PM 46.1°F7.8°C 35.2°F1.8°C 66% Calm Calm -- 30.18 in1022.0 mb 0.00 in0.0 mm 0.00 in0.0 mm 0.00 in0.0 mm
06:36 PM 46.2°F7.9°C 35.3°F1.8°C 66% Calm Calm -- 30.18 in1022.0 mb 0.00 in0.0 mm 0.00 in0.0 mm 0.00 in0.0 mm
06:41 PM 46.3°F7.9°C 35.0°F1.7°C 65% Calm Calm -- 30.18 in1022.0 mb 0.00 in0.0 mm 0.00 in0.0 mm 0.00 in0.0 mm
06:46 PM 46.2°F7.9°C 34.5°F1.4°C 64% Calm Calm -- 30.18 in1022.0 mb 0.00 in0.0 mm 0.00 in0.0 mm 0.00 in0.0 mm
06:51 PM 46.3°F7.9°C 34.6°F1.4°C 64% Calm Calm -- 30.18 in1022.0 mb 0.00 in0.0 mm 0.00 in0.0 mm 0.00 in0.0 mm
06:56 PM 46.3°F7.9°C 34.6°F1.4°C 64% Calm Calm -- 30.18 in1022.0 mb 0.00 in0.0 mm 0.00 in0.0 mm 0.00 in0.0 mm
07:01 PM 46.2°F7.9°C 34.1°F1.2°C 63% Calm Calm -- 30.17 in1021.7 mb 0.00 in0.0 mm 0.00 in0.0 mm 0.00 in0.0 mm
07:06 PM 46.3°F7.9°C 34.6°F1.4°C 64% Calm Calm -- 30.18 in1022.0 mb 0.00 in0.0 mm 0.00 in0.0 mm 0.00 in0.0 mm
07:11 PM 46.2°F7.9°C 34.5°F1.4°C 64% Calm Calm -- 30.18 in1022.0 mb 0.00 in0.0 mm 0.00 in0.0 mm 0.00 in0.0 mm
07:16 PM 46.2°F7.9°C 34.5°F1.4°C 64% Calm Calm -- 30.18 in1022.0 mb 0.00 in0.0 mm 0.00 in0.0 mm 0.00 in0.0 mm
07:21 PM 46.3°F7.9°C 35.0°F1.7°C 65% Calm Calm -- 30.18 in1022.0 mb 0.00 in0.0 mm 0.00 in0.0 mm 0.00 in0.0 mm
07:26 PM 46.3°F7.9°C 35.4°F1.9°C 66% Calm Calm -- 30.18 in1022.0 mb 0.00 in0.0 mm 0.00 in0.0 mm 0.00 in0.0 mm
07:31 PM 46.3°F7.9°C 35.4°F1.9°C 66% Calm Calm -- 30.19 in1022.4 mb 0.00 in0.0 mm 0.00 in0.0 mm 0.00 in0.0 mm
07:36 PM 46.3°F7.9°C 35.4°F1.9°C 66% Calm Calm -- 30.18 in1022.0 mb 0.00 in0.0 mm 0.00 in0.0 mm 0.00 in0.0 mm
07:41 PM 46.2°F7.9°C 35.3°F1.8°C 66% Calm Calm -- 30.18 in1022.0 mb 0.00 in0.0 mm 0.00 in0.0 mm 0.00 in0.0 mm
07:46 PM 46.2°F7.9°C 35.3°F1.8°C 66% Calm Calm -- 30.19 in1022.4 mb 0.00 in0.0 mm 0.00 in0.0 mm 0.00 in0.0 mm
07:51 PM 46.0°F7.8°C 35.1°F1.7°C 66% Calm Calm -- 30.19 in1022.4 mb 0.00 in0.0 mm 0.00 in0.0 mm 0.00 in0.0 mm
07:56 PM 45.8°F7.7°C 34.5°F1.4°C 65% Calm Calm -- 30.19 in1022.4 mb 0.00 in0.0 mm 0.00 in0.0 mm 0.00 in0.0 mm
08:01 PM 45.5°F7.5°C 34.6°F1.4°C 66% Calm Calm -- 30.19 in1022.4 mb 0.00 in0.0 mm 0.00 in0.0 mm 0.00 in0.0 mm
08:06 PM 45.4°F7.4°C 34.5°F1.4°C 66% Calm Calm -- 30.19 in1022.4 mb 0.00 in0.0 mm 0.00 in0.0 mm 0.00 in0.0 mm
08:11 PM 45.0°F7.2°C 34.5°F1.4°C 67% Calm Calm -- 30.19 in1022.4 mb 0.00 in0.0 mm 0.00 in0.0 mm 0.00 in0.0 mm
08:16 PM 44.6°F7.0°C 34.1°F1.2°C 67% Calm Calm -- 30.19 in1022.4 mb 0.00 in0.0 mm 0.00 in0.0 mm 0.00 in0.0 mm
08:21 PM 44.1°F6.7°C 33.7°F0.9°C 67% Calm Calm -- 30.19 in1022.4 mb 0.00 in0.0 mm 0.00 in0.0 mm 0.00 in0.0 mm
08:26 PM 43.7°F6.5°C 33.3°F0.7°C 67% Calm Calm -- 30.19 in1022.4 mb 0.00 in0.0 mm 0.00 in0.0 mm 0.00 in0.0 mm
08:31 PM 43.2°F6.2°C 33.2°F0.7°C 68% Calm Calm -- 30.20 in1022.7 mb 0.00 in0.0 mm 0.00 in0.0 mm 0.00 in0.0 mm
08:36 PM 42.8°F6.0°C 33.2°F0.7°C 69% Calm Calm -- 30.20 in1022.7 mb 0.00 in0.0 mm 0.00 in0.0 mm 0.00 in0.0 mm
08:41 PM 42.4°F5.8°C 32.8°F0.4°C 69% Calm Calm -- 30.20 in1022.7 mb 0.00 in0.0 mm 0.00 in0.0 mm 0.00 in0.0 mm
08:46 PM 42.0°F5.6°C 32.8°F0.4°C 70% Calm Calm -- 30.20 in1022.7 mb 0.00 in0.0 mm 0.00 in0.0 mm 0.00 in0.0 mm
08:51 PM 41.6°F5.3°C 32.8°F0.4°C 71% Calm Calm -- 30.20 in1022.7 mb 0.00 in0.0 mm 0.00 in0.0 mm 0.00 in0.0 mm
08:56 PM 41.3°F5.2°C 32.8°F0.4°C 72% Calm Calm -- 30.20 in1022.7 mb 0.00 in0.0 mm 0.00 in0.0 mm 0.00 in0.0 mm
09:01 PM 41.0°F5.0°C 32.6°F0.3°C 72% Calm Calm -- 30.20 in1022.7 mb 0.00 in0.0 mm 0.00 in0.0 mm 0.00 in0.0 mm
09:06 PM 40.6°F4.8°C 32.5°F0.3°C 73% Calm Calm -- 30.20 in1022.7 mb 0.00 in0.0 mm 0.00 in0.0 mm 0.00 in0.0 mm
09:11 PM 40.4°F4.7°C 32.7°F0.4°C 74% Calm Calm -- 30.20 in1022.7 mb 0.00 in0.0 mm 0.00 in0.0 mm 0.00 in0.0 mm
09:16 PM 40.2°F4.6°C 33.2°F0.7°C 76% Calm Calm -- 30.21 in1023.0 mb 0.00 in0.0 mm 0.00 in0.0 mm 0.00 in0.0 mm
09:21 PM 40.0°F4.4°C 33.3°F0.7°C 77% Calm Calm -- 30.21 in1023.0 mb 0.00 in0.0 mm 0.00 in0.0 mm 0.00 in0.0 mm
09:26 PM 39.8°F4.3°C 33.4°F0.8°C 78% Calm Calm -- 30.21 in1023.0 mb 0.00 in0.0 mm 0.00 in0.0 mm 0.00 in0.0 mm
09:31 PM 39.6°F4.2°C 33.3°F0.7°C 78% Calm Calm -- 30.22 in1023.4 mb 0.00 in0.0 mm 0.00 in0.0 mm 0.00 in0.0 mm
09:36 PM 39.4°F4.1°C 33.4°F0.8°C 79% Calm Calm -- 30.22 in1023.4 mb 0.00 in0.0 mm 0.00 in0.0 mm 0.00 in0.0 mm
09:41 PM 39.3°F4.1°C 33.6°F0.9°C 80% Calm Calm -- 30.22 in1023.4 mb 0.00 in0.0 mm 0.00 in0.0 mm 0.00 in0.0 mm
09:46 PM 39.4°F4.1°C 33.7°F0.9°C 80% Calm Calm -- 30.22 in1023.4 mb 0.00 in0.0 mm 0.00 in0.0 mm 0.00 in0.0 mm
09:51 PM 39.5°F4.2°C 33.8°F1.0°C 80% Calm Calm -- 30.22 in1023.4 mb 0.00 in0.0 mm 0.00 in0.0 mm 0.00 in0.0 mm
09:56 PM 39.5°F4.2°C 33.8°F1.0°C 80% Calm Calm -- 30.22 in1023.4 mb 0.00 in0.0 mm 0.00 in0.0 mm 0.00 in0.0 mm
10:01 PM 39.6°F4.2°C 33.9°F1.1°C 80% Calm Calm -- 30.22 in1023.4 mb 0.00 in0.0 mm 0.00 in0.0 mm 0.00 in0.0 mm
10:06 PM 39.5°F4.2°C 33.8°F1.0°C 80% Calm Calm -- 30.22 in1023.4 mb 0.00 in0.0 mm 0.00 in0.0 mm 0.00 in0.0 mm
10:11 PM 39.6°F4.2°C 33.9°F1.1°C 80% Calm Calm -- 30.22 in1023.4 mb 0.00 in0.0 mm 0.00 in0.0 mm 0.00 in0.0 mm
10:16 PM 39.7°F4.3°C 34.0°F1.1°C 80% Calm Calm -- 30.22 in1023.4 mb 0.00 in0.0 mm 0.00 in0.0 mm 0.00 in0.0 mm
10:21 PM 39.7°F4.3°C 34.0°F1.1°C 80% Calm Calm -- 30.23 in1023.7 mb 0.00 in0.0 mm 0.00 in0.0 mm 0.00 in0.0 mm
10:26 PM 39.7°F4.3°C 34.0°F1.1°C 80% Calm Calm -- 30.23 in1023.7 mb 0.00 in0.0 mm 0.00 in0.0 mm 0.00 in0.0 mm
10:31 PM 39.7°F4.3°C 34.0°F1.1°C 80% Calm Calm -- 30.23 in1023.7 mb 0.00 in0.0 mm 0.00 in0.0 mm 0.00 in0.0 mm
10:36 PM 39.8°F4.3°C 34.1°F1.2°C 80% Calm Calm -- 30.23 in1023.7 mb 0.00 in0.0 mm 0.00 in0.0 mm 0.00 in0.0 mm
10:41 PM 39.8°F4.3°C 34.1°F1.2°C 80% Calm Calm -- 30.23 in1023.7 mb 0.00 in0.0 mm 0.00 in0.0 mm 0.00 in0.0 mm
10:46 PM 39.7°F4.3°C 33.7°F0.9°C 79% Calm Calm -- 30.23 in1023.7 mb 0.00 in0.0 mm 0.00 in0.0 mm 0.00 in0.0 mm
10:51 PM 39.6°F4.2°C 33.6°F0.9°C 79% Calm Calm -- 30.23 in1023.7 mb 0.00 in0.0 mm 0.00 in0.0 mm 0.00 in0.0 mm
10:56 PM 39.6°F4.2°C 33.6°F0.9°C 79% Calm Calm -- 30.23 in1023.7 mb 0.00 in0.0 mm 0.00 in0.0 mm 0.00 in0.0 mm
11:01 PM 39.6°F4.2°C 33.6°F0.9°C 79% Calm Calm -- 30.23 in1023.7 mb 0.00 in0.0 mm 0.00 in0.0 mm 0.00 in0.0 mm
11:06 PM 39.6°F4.2°C 33.9°F1.1°C 80% Calm Calm -- 30.23 in1023.7 mb 0.00 in0.0 mm 0.00 in0.0 mm 0.00 in0.0 mm
11:11 PM 39.6°F4.2°C 33.9°F1.1°C 80% Calm Calm -- 30.23 in1023.7 mb 0.00 in0.0 mm 0.00 in0.0 mm 0.00 in0.0 mm
11:16 PM 39.6°F4.2°C 33.9°F1.1°C 80% 1.0 mph S1.6 kmh S 3.0 mph4.8 kmh 30.23 in1023.7 mb 0.00 in0.0 mm 0.00 in0.0 mm 0.00 in0.0 mm
11:21 PM 39.5°F4.2°C 33.8°F1.0°C 80% 2.0 mph S3.2 kmh S 3.0 mph4.8 kmh 30.23 in1023.7 mb 0.00 in0.0 mm 0.00 in0.0 mm 0.00 in0.0 mm
11:26 PM 39.5°F4.2°C 33.8°F1.0°C 80% 3.0 mph SSW4.8 kmh SSW 3.0 mph4.8 kmh 30.23 in1023.7 mb 0.00 in0.0 mm 0.00 in0.0 mm 0.00 in0.0 mm
11:31 PM 39.4°F4.1°C 33.7°F0.9°C 80% 2.0 mph S3.2 kmh S 4.0 mph6.4 kmh 30.23 in1023.7 mb 0.00 in0.0 mm 0.00 in0.0 mm 0.00 in0.0 mm
11:36 PM 39.4°F4.1°C 33.7°F0.9°C 80% 4.0 mph S6.4 kmh S 5.0 mph8.0 kmh 30.23 in1023.7 mb 0.00 in0.0 mm 0.00 in0.0 mm 0.00 in0.0 mm
11:41 PM 39.3°F4.1°C 33.6°F0.9°C 80% Calm Calm -- 30.23 in1023.7 mb 0.00 in0.0 mm 0.00 in0.0 mm 0.00 in0.0 mm
11:46 PM 39.3°F4.1°C 33.6°F0.9°C 80% Calm Calm -- 30.23 in1023.7 mb 0.00 in0.0 mm 0.00 in0.0 mm 0.00 in0.0 mm
11:51 PM 39.2°F4.0°C 33.5°F0.8°C 80% Calm Calm -- 30.23 in1023.7 mb 0.00 in0.0 mm 0.00 in0.0 mm 0.00 in0.0 mm
11:56 PM 39.2°F4.0°C 33.5°F0.8°C 80% Calm Calm -- 30.23 in1023.7 mb 0.00 in0.0 mm 0.00 in0.0 mm 0.00 in0.0 mm